Time;durP1;ratioP1;P1;durP2;ratioP2;P2;SDS_P1;SDS_P2;PMS_P1;PMS_P2;Temp;Humidity;BMP_temperature;BMP_pressure;BME280_temperature;BME280_humidity;BME280_pressure;Samples;Min_cycle;Max_cycle;Signal;HPM_P1;HPM_P2
2021/12/21 00:00:47;;;;;;;4.17;1.98;;;;;;;2.62;75.86;100345.17;1960678;73;21496;-62
2021/12/21 00:03:17;;;;;;;5.10;2.70;;;;;;;2.59;75.80;100353.88;1960539;72;21483;-61
2021/12/21 00:05:47;;;;;;;9.55;2.40;;;;;;;2.55;75.80;100359.16;1959610;72;21031;-61
2021/12/21 00:08:17;;;;;;;8.88;2.95;;;;;;;2.50;75.82;100367.84;1960450;72;21113;-61
2021/12/21 00:10:47;;;;;;;4.65;2.58;;;;;;;2.42;75.87;100374.03;1960685;73;21418;-61
2021/12/21 00:13:42;;;;;;;7.08;2.67;;;;;;;2.35;75.93;100369.33;1922293;73;21083;-61
2021/12/21 00:16:08;;;;;;;5.10;2.58;;;;;;;2.29;76.05;100379.35;1919783;73;21020;-61
2021/12/21 00:18:44;;;;;;;3.40;2.20;;;;;;;2.33;76.10;100381.92;1958772;73;21064;-61
2021/12/21 00:21:20;;;;;;;6.95;2.10;;;;;;;2.35;76.03;100384.06;1959501;73;21045;-62
2021/12/21 00:23:44;;;;;;;3.85;2.47;;;;;;;2.36;75.95;100385.77;1941002;73;21071;-61
2021/12/21 00:26:14;;;;;;;7.65;2.60;;;;;;;2.35;75.85;100393.16;1960342;73;21051;-61
2021/12/21 00:31:15;;;;;;;5.00;2.55;;;;;;;2.31;75.78;100403.58;1960541;73;21542;-62
2021/12/21 00:33:46;;;;;;;6.40;2.80;;;;;;;2.30;75.87;100396.64;1948291;73;21042;-61
2021/12/21 00:36:16;;;;;;;4.90;2.42;;;;;;;2.29;75.94;100394.94;1957194;73;21131;-61
2021/12/21 00:38:46;;;;;;;4.37;2.30;;;;;;;2.32;76.00;100399.23;1973041;73;21042;-61
2021/12/21 00:41:16;;;;;;;6.10;2.40;;;;;;;2.35;75.99;100400.95;1948293;74;21026;-61
2021/12/21 00:43:45;;;;;;;6.30;2.58;;;;;;;2.38;75.98;100405.68;1961352;73;21084;-60
2021/12/21 00:46:15;;;;;;;4.95;2.33;;;;;;;2.44;76.08;100409.95;1966854;73;21502;-59
2021/12/21 00:48:50;;;;;;;5.55;2.37;;;;;;;2.49;76.09;100413.33;1966854;73;21112;-59
2021/12/21 00:51:20;;;;;;;5.12;3.22;;;;;;;2.50;75.97;100422.42;1966135;73;20984;-59
2021/12/21 00:53:52;;;;;;;6.05;2.77;;;;;;;2.48;75.92;100419.42;1966854;73;21075;-58
2021/12/21 00:56:21;;;;;;;7.62;2.50;;;;;;;2.47;76.00;100418.98;1966372;73;21105;-58
2021/12/21 00:59:01;;;;;;;4.83;2.70;;;;;;;2.44;76.05;100428.14;1966825;73;21048;-60
2021/12/21 01:01:36;;;;;;;6.72;3.00;;;;;;;2.45;76.11;100438.94;1942354;73;21006;-59
2021/12/21 01:04:08;;;;;;;7.05;2.87;;;;;;;2.46;76.07;100426.38;1923845;74;21006;-59
2021/12/21 01:09:29;;;;;;;7.17;2.47;;;;;;;2.45;76.05;100433.74;1928214;74;21050;-60
2021/12/21 01:11:49;;;;;;;;;;;;;;;2.44;76.02;100445.03;1926103;74;21104;-60
2021/12/21 01:17:09;;;;;;;8.33;3.12;;;;;;;2.57;75.97;100450.97;1966357;73;21034;-62
2021/12/21 01:19:43;;;;;;;5.67;2.77;;;;;;;2.63;75.97;100449.59;1965567;73;21050;-60
2021/12/21 01:22:22;;;;;;;5.05;2.15;;;;;;;2.70;75.93;100449.95;1965956;73;21104;-62
2021/12/21 01:27:51;;;;;;;4.40;2.40;;;;;;;2.80;75.82;100451.54;1966708;73;21038;-60
2021/12/21 01:30:29;;;;;;;3.95;2.60;;;;;;;2.83;75.80;100446.31;1962523;73;21119;-63
2021/12/21 01:35:34;;;;;;;5.22;2.72;;;;;;;2.89;75.69;100445.38;1926866;74;20994;-60
2021/12/21 01:43:17;;;;;;;5.40;2.33;;;;;;;2.85;75.61;100447.16;1959850;73;21054;-59
2021/12/21 01:51:14;;;;;;;4.67;2.40;;;;;;;2.88;75.83;100462.73;1925940;74;21042;-60
2021/12/21 01:53:44;;;;;;;4.50;2.95;;;;;;;2.89;75.74;100455.78;1925882;74;21473;-59
2021/12/21 01:56:14;;;;;;;5.28;2.92;;;;;;;2.85;75.55;100439.34;1928308;73;21057;-59
2021/12/21 01:58:43;;;;;;;6.70;3.17;;;;;;;2.77;75.30;100439.05;1959920;73;21022;-61
2021/12/21 02:01:16;;;;;;;5.95;2.83;;;;;;;2.59;75.32;100451.36;1960137;73;21434;-59
2021/12/21 02:03:48;;;;;;;4.83;2.87;;;;;;;2.42;75.38;100460.64;1959994;73;21026;-60
2021/12/21 02:06:17;;;;;;;7.03;3.45;;;;;;;2.27;75.48;100460.80;1959643;73;21030;-61
2021/12/21 02:08:46;;;;;;;5.80;2.95;;;;;;;2.13;75.65;100476.49;1921906;73;20978;-61
2021/12/21 02:11:16;;;;;;;8.30;3.17;;;;;;;2.03;75.78;100496.49;1918422;75;21469;-62
2021/12/21 02:13:48;;;;;;;6.45;3.00;;;;;;;1.94;75.87;100495.27;1918722;75;20975;-60
2021/12/21 02:16:24;;;;;;;6.67;3.40;;;;;;;1.85;75.95;100503.97;1926580;73;21010;-59
2021/12/21 02:18:55;;;;;;;8.78;3.75;;;;;;;1.80;76.01;100506.18;1957885;73;21527;-61
2021/12/21 02:23:51;;;;;;;5.20;2.58;;;;;;;1.76;76.38;100502.73;1960440;72;21087;-61
2021/12/21 02:31:52;;;;;;;6.53;3.22;;;;;;;1.95;76.49;100528.58;1918523;75;21112;-61
2021/12/21 02:34:22;;;;;;;7.25;4.15;;;;;;;2.01;76.62;100536.31;1918672;75;20982;-58
2021/12/21 02:36:53;;;;;;;9.60;3.45;;;;;;;2.09;76.67;100542.33;1918467;74;21389;-60
2021/12/21 02:39:23;;;;;;;11.55;3.87;;;;;;;2.16;76.75;100557.41;1925219;73;21094;-60
2021/12/21 02:41:52;;;;;;;9.23;3.80;;;;;;;2.22;76.75;100559.98;1925655;74;21040;-59
2021/12/21 02:44:21;;;;;;;12.90;4.20;;;;;;;2.30;76.64;100555.58;1925472;74;21036;-58
2021/12/21 02:46:50;;;;;;;12.85;3.92;;;;;;;2.38;76.49;100554.21;1925530;74;21593;-58
2021/12/21 02:49:19;;;;;;;7.47;3.83;;;;;;;2.42;76.37;100564.59;1928579;73;21502;-60
2021/12/21 02:51:48;;;;;;;7.22;3.75;;;;;;;2.48;76.23;100570.16;1925622;74;21599;-60
2021/12/21 02:54:19;;;;;;;6.28;3.65;;;;;;;2.48;76.15;100569.72;1925438;74;21056;-60
2021/12/21 02:56:49;;;;;;;9.55;4.37;;;;;;;2.51;76.03;100577.95;1942910;73;21022;-59
2021/12/21 02:59:18;;;;;;;10.32;4.55;;;;;;;2.51;75.86;100579.25;1959801;73;21567;-62
2021/12/21 03:01:46;;;;;;;9.00;4.97;;;;;;;2.49;75.73;100578.37;1959915;73;21070;-63
2021/12/21 03:04:15;;;;;;;9.30;5.08;;;;;;;2.41;75.73;100582.78;1959960;73;21108;-60
2021/12/21 03:14:59;;;;;;;9.70;4.03;;;;;;;2.12;75.81;100580.84;1955492;73;21028;-58
2021/12/21 03:17:24;;;;;;;8.75;4.25;;;;;;;2.08;75.79;100588.64;1958143;73;21097;-60
2021/12/21 03:19:52;;;;;;;6.12;3.30;;;;;;;2.04;75.91;100586.95;1947020;73;21036;-62
2021/12/21 03:22:21;;;;;;;9.43;3.98;;;;;;;1.94;76.07;100596.53;1925474;74;21580;-60
2021/12/21 03:24:50;;;;;;;9.28;4.03;;;;;;;1.85;76.13;100599.19;1925446;74;21079;-61
2021/12/21 03:27:19;;;;;;;6.28;3.50;;;;;;;1.75;76.32;100603.55;1925634;74;21443;-61
2021/12/21 03:29:47;;;;;;;7.00;3.85;;;;;;;1.70;76.22;100609.22;1926316;73;21095;-61
2021/12/21 03:32:17;;;;;;;8.03;4.08;;;;;;;1.65;76.16;100608.37;1925491;74;21157;-62
2021/12/21 03:34:46;;;;;;;8.65;3.70;;;;;;;1.60;76.33;100608.81;1925446;74;21521;-61
2021/12/21 03:37:14;;;;;;;8.08;4.22;;;;;;;1.58;76.34;100603.63;1926169;74;21607;-61
2021/12/21 03:39:45;;;;;;;6.25;3.00;;;;;;;1.59;76.46;100609.70;1929080;74;21145;-60
2021/12/21 03:42:16;;;;;;;5.67;3.15;;;;;;;1.57;76.46;100616.60;1928966;74;21106;-60
2021/12/21 03:44:44;;;;;;;5.90;2.92;;;;;;;1.56;76.40;100625.27;1929105;74;21102;-60
2021/12/21 03:47:15;;;;;;;7.80;3.58;;;;;;;1.53;76.46;100629.61;1928881;74;21008;-60
2021/12/21 03:52:17;;;;;;;14.40;4.30;;;;;;;1.54;76.41;100644.73;1929013;74;21052;-61
2021/12/21 03:54:51;;;;;;;12.07;5.22;;;;;;;1.53;76.60;100646.48;1929015;74;21004;-60
2021/12/21 03:57:21;;;;;;;8.78;3.62;;;;;;;1.55;76.78;100641.29;1929006;74;21113;-61
2021/12/21 03:59:50;;;;;;;15.63;3.98;;;;;;;1.56;76.89;100644.73;1928999;74;21608;-61
2021/12/21 04:02:19;;;;;;;11.33;4.20;;;;;;;1.60;76.89;100649.89;1928909;74;21526;-61
2021/12/21 04:04:49;;;;;;;19.30;5.83;;;;;;;1.67;76.85;100655.50;1929096;74;21107;-60
2021/12/21 04:07:18;;;;;;;20.15;6.12;;;;;;;1.73;76.83;100650.72;1929015;74;21109;-59
2021/12/21 04:09:48;;;;;;;10.25;4.17;;;;;;;1.76;76.71;100652.45;1929092;74;21015;-59
2021/12/21 04:12:17;;;;;;;12.90;4.72;;;;;;;1.73;76.53;100649.00;1928911;74;21103;-59
2021/12/21 04:14:45;;;;;;;10.60;4.87;;;;;;;1.67;76.48;100651.60;1929027;74;21133;-59
2021/12/21 04:17:23;;;;;;;20.32;10.48;;;;;;;1.61;76.37;100659.42;1949693;73;21023;-59
2021/12/21 04:19:52;;;;;;;14.53;6.95;;;;;;;1.52;76.40;100660.31;1963531;73;21093;-59
2021/12/21 04:22:21;;;;;;;19.67;8.53;;;;;;;1.43;76.51;100664.67;1963465;73;21477;-60
2021/12/21 04:24:50;;;;;;;14.93;7.00;;;;;;;1.33;76.73;100674.22;1963387;73;21622;-59
2021/12/21 04:27:20;;;;;;;16.40;6.95;;;;;;;1.26;76.84;100678.55;1963722;73;21151;-59
2021/12/21 04:29:49;;;;;;;14.35;5.87;;;;;;;1.21;76.85;100679.42;1969053;73;21470;-62
2021/12/21 04:32:17;;;;;;;11.05;6.33;;;;;;;1.17;76.90;100679.86;1970502;73;21146;-61
2021/12/21 04:34:46;;;;;;;17.07;6.60;;;;;;;1.11;76.89;100684.63;1970477;73;21043;-61
2021/12/21 04:40:07;;;;;;;14.55;7.25;;;;;;;1.03;76.85;100692.82;1954721;73;21072;-58
2021/12/21 04:42:37;;;;;;;18.80;7.87;;;;;;;1.00;76.89;100690.66;1954794;73;21531;-59
2021/12/21 04:45:24;;;;;;;12.25;6.75;;;;;;;0.93;76.95;100692.41;1954588;73;21130;-59
2021/12/21 04:47:53;;;;;;;12.13;6.03;;;;;;;0.91;76.99;100708.41;1954880;73;21542;-59
2021/12/21 04:50:22;;;;;;;16.45;7.15;;;;;;;0.88;77.08;100704.50;1954880;73;20999;-60
2021/12/21 04:52:51;;;;;;;15.88;6.10;;;;;;;0.87;77.16;100703.65;1954795;73;21485;-61
2021/12/21 04:55:20;;;;;;;13.95;7.00;;;;;;;0.90;77.27;100706.66;1954770;73;21046;-64
2021/12/21 04:57:49;;;;;;;19.17;7.00;;;;;;;0.92;77.47;100714.00;1954694;73;21536;-62
2021/12/21 05:00:18;;;;;;;14.23;6.45;;;;;;;0.93;77.60;100721.78;1954746;73;21050;-62
2021/12/21 05:02:47;;;;;;;13.58;6.50;;;;;;;0.98;77.56;100721.80;1954779;73;21473;-61
2021/12/21 05:05:16;;;;;;;13.50;5.95;;;;;;;0.98;77.60;100726.98;1954852;73;21489;-61
2021/12/21 05:07:50;;;;;;;11.43;5.00;;;;;;;1.00;77.70;100735.63;1954891;73;21022;-61
2021/12/21 05:10:15;;;;;;;9.50;4.47;;;;;;;1.04;77.76;100737.34;1954623;73;21014;-59
2021/12/21 05:12:44;;;;;;;14.58;5.65;;;;;;;1.09;77.59;100736.92;1954769;73;21116;-60
2021/12/21 05:15:13;;;;;;;18.82;6.10;;;;;;;1.08;77.51;100745.55;1954986;73;21018;-59
2021/12/21 05:17:42;;;;;;;17.48;5.70;;;;;;;1.01;77.41;100747.70;1926700;73;21092;-58
2021/12/21 05:20:11;;;;;;;15.60;5.10;;;;;;;0.96;77.34;100750.31;1919148;75;21030;-59
2021/12/21 05:22:40;;;;;;;19.67;5.55;;;;;;;0.93;77.23;100744.27;1919248;74;21109;-60
2021/12/21 05:25:09;;;;;;;14.45;6.08;;;;;;;0.89;77.19;100759.39;1918985;75;21148;-62
2021/12/21 05:27:38;;;;;;;11.55;5.72;;;;;;;0.85;77.27;100764.11;1919287;75;21035;-61
2021/12/21 05:30:07;;;;;;;13.53;5.10;;;;;;;0.88;77.32;100774.50;1919155;75;21089;-59
2021/12/21 05:32:36;;;;;;;23.62;10.58;;;;;;;0.92;77.27;100767.15;1919246;75;21031;-59
2021/12/21 05:35:05;;;;;;;21.07;9.78;;;;;;;0.92;77.21;100766.74;1919116;73;21031;-60
2021/12/21 05:37:38;;;;;;;20.92;9.38;;;;;;;0.94;77.14;100779.68;1940760;73;21024;-64
2021/12/21 05:40:13;;;;;;;12.37;5.30;;;;;;;0.94;77.20;100777.09;1939020;73;21050;-63
2021/12/21 05:42:42;;;;;;;10.78;5.58;;;;;;;0.89;77.45;100784.02;1928585;73;21030;-63
2021/12/21 05:45:13;;;;;;;15.05;6.42;;;;;;;0.86;77.37;100790.48;1959292;73;21144;-62
2021/12/21 05:47:41;;;;;;;14.43;6.50;;;;;;;0.80;77.68;100789.19;1961241;73;21010;-61
2021/12/21 05:50:15;;;;;;;12.10;5.70;;;;;;;0.81;77.55;100789.61;1958803;73;21030;-63
2021/12/21 05:52:46;;;;;;;11.33;6.10;;;;;;;0.91;77.51;100790.92;1967637;72;20983;-62
2021/12/21 05:55:16;;;;;;;8.35;4.67;;;;;;;1.15;77.42;100797.00;1958281;73;21072;-62
2021/12/21 05:57:46;;;;;;;8.60;4.62;;;;;;;1.76;77.08;100788.75;1925242;74;21100;-63
2021/12/21 06:00:17;;;;;;;10.32;5.05;;;;;;;2.16;76.46;100783.41;1940855;73;21096;-65
2021/12/21 06:02:46;;;;;;;9.75;4.80;;;;;;;2.34;75.87;100789.84;1940705;73;21031;-65
2021/12/21 06:05:16;;;;;;;11.40;5.83;;;;;;;2.71;75.53;100793.55;1926539;74;21493;-61
2021/12/21 06:07:48;;;;;;;13.85;5.70;;;;;;;3.20;75.07;100792.36;1961268;73;21527;-60
2021/12/21 06:10:22;;;;;;;10.25;4.83;;;;;;;3.81;74.18;100790.49;1925130;74;21046;-63
2021/12/21 06:26:18;;;;;;;9.50;4.62;;;;;;;9.02;67.85;100786.22;1961123;73;21109;-59
2021/12/21 06:28:48;;;;;;;9.30;4.12;;;;;;;9.64;66.95;100779.30;1961285;73;21026;-66
2021/12/21 06:31:17;;;;;;;8.80;4.03;;;;;;;10.35;65.97;100782.08;1961154;73;21421;-62
2021/12/21 06:33:45;;;;;;;6.83;3.75;;;;;;;10.82;64.29;100777.21;1960722;73;21002;-63
2021/12/21 06:36:15;;;;;;;8.78;4.28;;;;;;;10.89;61.88;100779.16;1960864;73;21460;-62
2021/12/21 06:38:45;;;;;;;6.37;3.58;;;;;;;10.90;59.75;100785.69;1960981;73;21100;-61
2021/12/21 06:41:14;;;;;;;7.92;3.70;;;;;;;10.88;58.31;100791.48;1960898;73;21473;-60
2021/12/21 06:43:43;;;;;;;8.38;3.87;;;;;;;10.97;57.96;100804.72;1960862;73;21112;-61
2021/12/21 06:46:19;;;;;;;9.35;4.45;;;;;;;11.32;57.89;100806.39;1940878;73;21063;-64
2021/12/21 06:51:44;;;;;;;9.73;4.22;;;;;;;11.81;56.43;100804.81;1938030;74;21461;-62
2021/12/21 06:54:05;;;;;;;8.88;4.60;;;;;;;12.22;55.72;100804.33;1936788;74;21003;-60
2021/12/21 06:56:34;;;;;;;6.25;4.00;;;;;;;12.71;55.21;100804.73;1937751;74;21027;-61
2021/12/21 06:59:02;;;;;;;6.97;3.72;;;;;;;13.00;53.57;100807.75;1937713;74;21079;-61
2021/12/21 07:01:33;;;;;;;9.98;3.33;;;;;;;13.23;53.57;100804.48;1937914;74;21031;-61
2021/12/21 07:04:02;;;;;;;10.25;3.35;;;;;;;13.55;52.69;100802.05;1937764;74;21023;-61
2021/12/21 07:06:33;;;;;;;7.67;3.65;;;;;;;13.97;51.75;100806.08;1937738;74;21000;-61
2021/12/21 07:09:11;;;;;;;5.25;3.47;;;;;;;14.35;51.00;100807.15;1937788;74;21105;-61
2021/12/21 07:11:43;;;;;;;4.90;2.42;;;;;;;14.54;49.36;100802.58;1902625;74;21030;-61
2021/12/21 07:19:40;;;;;;;5.35;2.52;;;;;;;14.42;47.60;100799.27;1922786;74;21011;-61
2021/12/21 07:22:09;;;;;;;6.20;2.47;;;;;;;14.65;46.74;100796.25;1925455;74;21066;-61
2021/12/21 07:24:39;;;;;;;4.28;2.22;;;;;;;14.76;45.48;100793.48;1925467;74;21547;-59
2021/12/21 07:27:08;;;;;;;2.55;1.90;;;;;;;15.16;45.32;100799.17;1925489;74;21529;-61
2021/12/21 07:29:37;;;;;;;2.87;2.17;;;;;;;15.62;44.70;100791.18;1925507;74;21480;-66
2021/12/21 07:32:06;;;;;;;4.87;2.72;;;;;;;16.00;43.78;100794.22;1921879;74;20994;-66
2021/12/21 07:34:35;;;;;;;3.92;1.67;;;;;;;15.95;43.33;100794.13;1884592;76;21042;-63
2021/12/21 07:37:09;;;;;;;4.85;2.27;;;;;;;16.26;42.83;100796.23;1918967;75;21026;-60
2021/12/21 07:39:35;;;;;;;7.20;2.10;;;;;;;16.37;42.49;100798.59;1884304;76;21546;-60
2021/12/21 07:42:06;;;;;;;4.97;1.70;;;;;;;16.60;41.91;100798.48;1919083;74;21092;-61
2021/12/21 07:44:34;;;;;;;3.98;1.80;;;;;;;16.95;41.27;100799.40;1884648;76;21006;-63
2021/12/21 07:47:04;;;;;;;5.28;1.90;;;;;;;16.96;40.34;100799.76;1957914;73;21053;-61
2021/12/21 07:49:33;;;;;;;2.80;1.50;;;;;;;17.12;40.25;100800.11;1919071;75;21117;-60
2021/12/21 07:52:03;;;;;;;3.83;2.45;;;;;;;17.51;39.32;100790.42;1919767;75;21038;-61
2021/12/21 07:54:31;;;;;;;4.90;1.80;;;;;;;17.50;39.08;100796.23;1926437;74;21493;-62
2021/12/21 07:57:00;;;;;;;5.08;1.72;;;;;;;17.52;38.06;100796.11;1951864;73;21222;-60
2021/12/21 07:59:29;;;;;;;2.90;2.08;;;;;;;17.73;38.39;100796.00;1951779;73;21038;-61
2021/12/21 08:01:58;;;;;;;2.80;1.30;;;;;;;17.90;37.69;100798.02;1951979;73;21394;-61
2021/12/21 08:04:28;;;;;;;3.30;1.27;;;;;;;17.65;36.45;100791.68;1951993;73;21096;-62
2021/12/21 08:07:04;;;;;;;2.30;1.20;;;;;;;17.02;37.28;100791.01;1951837;73;21019;-61
2021/12/21 08:09:39;;;;;;;3.33;1.40;;;;;;;17.55;36.93;100789.25;1951406;73;21547;-61
2021/12/21 08:12:14;;;;;;;2.20;0.65;;;;;;;17.83;36.25;100788.70;1949801;73;21222;-65
2021/12/21 08:14:43;;;;;;;4.37;1.20;;;;;;;18.30;35.97;100787.25;1952087;73;21485;-64
2021/12/21 08:17:12;;;;;;;3.85;0.90;;;;;;;18.10;35.33;100787.31;1937190;73;21034;-64
2021/12/21 08:19:41;;;;;;;1.65;0.72;;;;;;;18.19;34.88;100780.49;1926807;74;21070;-63
2021/12/21 08:22:10;;;;;;;3.52;1.10;;;;;;;18.25;34.92;100790.71;1929124;73;21127;-62
2021/12/21 08:24:40;;;;;;;1.95;1.00;;;;;;;18.66;34.96;100792.23;1961144;72;21534;-61
2021/12/21 08:27:09;;;;;;;2.83;1.10;;;;;;;19.18;34.56;100789.79;1967898;73;21539;-61
2021/12/21 08:29:38;;;;;;;1.65;1.10;;;;;;;19.28;34.06;100792.13;1958146;73;21522;-62
2021/12/21 08:32:08;;;;;;;2.95;0.90;;;;;;;19.62;33.67;100797.60;1952065;73;21450;-62
2021/12/21 08:34:37;;;;;;;0.88;0.57;;;;;;;19.76;32.75;100791.22;1926458;73;21037;-62
2021/12/21 08:37:05;;;;;;;0.60;0.50;;;;;;;19.60;31.65;100800.84;1926383;74;21090;-61
2021/12/21 08:39:39;;;;;;;1.42;0.62;;;;;;;19.63;30.42;100787.27;1926412;74;21125;-61
2021/12/21 08:42:05;;;;;;;3.58;0.80;;;;;;;19.76;31.23;100789.88;1926463;74;21062;-60
2021/12/21 08:44:34;;;;;;;2.25;0.78;;;;;;;20.16;31.19;100793.94;1923776;74;21095;-60
2021/12/21 08:47:03;;;;;;;1.85;0.60;;;;;;;20.35;31.06;100799.55;1939184;73;21144;-60
2021/12/21 08:49:32;;;;;;;2.10;0.40;;;;;;;20.82;30.34;100796.25;1961850;73;21042;-61
2021/12/21 08:52:01;;;;;;;0.50;0.40;;;;;;;21.20;29.69;100793.57;1922356;75;21534;-61
2021/12/21 08:54:30;;;;;;;0.50;0.50;;;;;;;21.40;28.64;100788.39;1902704;75;21525;-62
2021/12/21 08:56:59;;;;;;;0.50;0.50;;;;;;;21.85;28.66;100796.20;1902688;75;21055;-64
2021/12/21 08:59:27;;;;;;;3.12;0.57;;;;;;;22.20;28.74;100788.77;1916525;73;21039;-63
2021/12/21 09:01:56;;;;;;;0.62;0.60;;;;;;;22.43;28.19;100781.40;1954716;73;21034;-63
2021/12/21 09:04:28;;;;;;;0.53;0.42;;;;;;;22.54;28.09;100781.33;1952059;73;21008;-63
2021/12/21 09:06:57;;;;;;;;;;;;;;;22.51;28.00;100780.24;1953666;73;21130;-63
2021/12/21 09:09:26;;;;;;;2.85;0.62;;;;;;;22.59;28.04;100776.37;1951952;73;20142;-66
2021/12/21 09:11:54;;;;;;;2.05;0.50;;;;;;;21.84;27.92;100782.92;1951876;73;21008;-67
2021/12/21 09:14:23;;;;;;;0.90;0.60;;;;;;;20.42;29.16;100783.38;1951829;73;21068;-67
2021/12/21 09:16:52;;;;;;;0.40;0.40;;;;;;;20.58;28.32;100787.02;1945952;73;21574;-65
2021/12/21 09:19:20;;;;;;;0.53;0.50;;;;;;;21.32;27.73;100782.81;1938685;74;21007;-65
2021/12/21 09:21:49;;;;;;;1.42;0.90;;;;;;;22.11;27.16;100781.03;1938474;74;21674;-65
2021/12/21 09:24:18;;;;;;;2.67;1.17;;;;;;;22.49;26.77;100774.17;1938457;74;21138;-65
2021/12/21 09:26:47;;;;;;;1.60;0.60;;;;;;;22.75;26.55;100778.04;1938434;74;21128;-65
2021/12/21 09:29:15;;;;;;;0.78;0.60;;;;;;;23.07;26.30;100774.80;1938488;74;21007;-66
2021/12/21 09:31:44;;;;;;;0.93;0.47;;;;;;;23.37;26.03;100774.30;1938517;74;21050;-65
2021/12/21 09:34:13;;;;;;;1.27;0.53;;;;;;;23.40;25.66;100775.38;1938661;74;21047;-65
2021/12/21 09:36:41;;;;;;;1.52;0.70;;;;;;;22.18;26.43;100770.13;1938464;74;21043;-65
2021/12/21 09:39:10;;;;;;;1.82;0.60;;;;;;;19.57;29.09;100765.51;1938466;74;21035;-65
2021/12/21 09:41:39;;;;;;;0.55;0.45;;;;;;;17.73;30.80;100770.69;1938446;74;21031;-65
2021/12/21 09:44:10;;;;;;;2.08;0.62;;;;;;;15.74;32.23;100767.92;1938723;74;21580;-65
2021/12/21 09:46:38;;;;;;;2.67;0.60;;;;;;;15.27;33.22;100764.95;1937459;74;21117;-65
2021/12/21 09:49:07;;;;;;;1.85;0.70;;;;;;;17.20;30.71;100763.19;1931668;74;21471;-65
2021/12/21 09:51:35;;;;;;;1.65;0.60;;;;;;;18.77;29.38;100768.29;1931708;74;21024;-65
2021/12/21 09:54:04;;;;;;;0.90;0.70;;;;;;;18.93;29.36;100764.06;1931564;74;21022;-65
2021/12/21 09:56:33;;;;;;;1.70;0.80;;;;;;;17.30;30.87;100768.75;1931673;74;21039;-65
2021/12/21 09:59:05;;;;;;;1.25;0.80;;;;;;;16.04;32.76;100772.80;1931801;74;21576;-64
2021/12/21 10:01:34;;;;;;;5.03;1.50;;;;;;;17.79;30.99;100767.24;1931764;74;21047;-64
2021/12/21 10:04:02;;;;;;;1.70;0.90;;;;;;;18.69;29.83;100761.34;1931826;74;21156;-63
2021/12/21 10:06:33;;;;;;;0.70;0.50;;;;;;;17.39;31.22;100771.28;1931647;74;21027;-65
2021/12/21 10:09:08;;;;;;;1.27;0.75;;;;;;;16.21;32.53;100770.81;1932036;74;21039;-65
2021/12/21 10:11:49;;;;;;;1.05;0.60;;;;;;;15.18;33.07;100773.41;1931675;74;21474;-65
2021/12/21 10:14:19;;;;;;;1.32;0.55;;;;;;;13.90;34.59;100773.30;1931685;74;21027;-65
2021/12/21 10:16:48;;;;;;;0.95;0.70;;;;;;;15.28;33.19;100778.58;1931713;74;21031;-66
2021/12/21 10:19:23;;;;;;;0.78;0.70;;;;;;;15.32;33.05;100777.93;1931689;74;21028;-61
2021/12/21 10:21:52;;;;;;;1.00;0.60;;;;;;;14.88;33.74;100775.55;1931791;74;21156;-60
2021/12/21 10:24:26;;;;;;;1.17;0.80;;;;;;;14.33;34.42;100778.57;1931785;74;21029;-60
2021/12/21 10:27:10;;;;;;;;;;;;;;;13.44;35.49;100774.34;1934489;74;21039;-64
2021/12/21 10:29:51;;;;;;;1.10;0.75;;;;;;;12.89;36.43;100778.34;1931865;74;20192;-64
2021/12/21 10:32:31;;;;;;;2.30;0.80;;;;;;;13.29;36.41;100776.41;1931797;74;21003;-64
2021/12/21 10:35:09;;;;;;;1.52;0.80;;;;;;;13.38;36.39;100779.95;1931794;74;21023;-63
2021/12/21 10:37:40;;;;;;;2.05;0.80;;;;;;;12.77;37.18;100788.20;1931584;74;21095;-66
2021/12/21 10:40:22;;;;;;;1.77;0.90;;;;;;;12.10;38.08;100791.23;1931771;74;21635;-65
2021/12/21 10:43:02;;;;;;;1.07;0.78;;;;;;;11.59;38.86;100797.34;1931207;74;21047;-65
2021/12/21 10:45:41;;;;;;;1.70;0.85;;;;;;;11.15;39.41;100804.45;1931926;74;21027;-65
2021/12/21 10:48:20;;;;;;;1.22;0.80;;;;;;;10.80;40.01;100802.29;1931467;74;21063;-66
2021/12/21 10:50:50;;;;;;;1.45;0.85;;;;;;;10.55;40.57;100807.66;1931697;74;21043;-65
2021/12/21 10:53:23;;;;;;;2.72;0.88;;;;;;;10.48;40.79;100798.27;1913554;74;21018;-66
2021/12/21 10:56:04;;;;;;;1.00;0.80;;;;;;;10.41;40.79;100798.95;1893135;75;21429;-65
2021/12/21 10:58:35;;;;;;;1.90;0.90;;;;;;;10.27;40.95;100798.56;1901845;74;21065;-68
2021/12/21 11:01:06;;;;;;;2.90;1.20;;;;;;;10.09;40.91;100804.06;1931612;74;21561;-62
2021/12/21 11:03:44;;;;;;;2.52;1.02;;;;;;;10.28;41.08;100802.08;1931638;74;21051;-64
2021/12/21 11:06:12;;;;;;;0.90;0.70;;;;;;;11.00;39.98;100793.61;1931576;74;21059;-64
2021/12/21 11:08:44;;;;;;;1.40;0.90;;;;;;;10.84;39.79;100798.23;1908805;74;21435;-64
2021/12/21 11:11:29;;;;;;;2.58;0.90;;;;;;;10.45;40.35;100802.80;1955861;72;21069;-64
2021/12/21 11:14:09;;;;;;;0.98;0.78;;;;;;;10.18;40.96;100805.48;1954653;73;20991;-62
2021/12/21 11:16:40;;;;;;;4.42;1.02;;;;;;;10.21;41.15;100804.06;1954863;73;21094;-62
2021/12/21 11:19:11;;;;;;;2.05;0.72;;;;;;;10.04;41.55;100804.21;1954981;73;21022;-61
2021/12/21 11:21:42;;;;;;;1.15;0.80;;;;;;;9.92;41.77;100804.63;1954770;73;21097;-65
2021/12/21 11:24:13;;;;;;;1.00;0.72;;;;;;;9.76;42.11;100818.80;1954924;73;21465;-65
2021/12/21 11:26:45;;;;;;;1.40;0.80;;;;;;;9.65;42.32;100827.05;1954925;72;21042;-64
2021/12/21 11:29:19;;;;;;;2.12;0.90;;;;;;;9.55;42.48;100832.19;1954768;73;21064;-65
2021/12/21 11:31:52;;;;;;;1.25;0.90;;;;;;;9.45;42.73;100832.11;1954901;73;21025;-64
2021/12/21 11:34:24;;;;;;;1.20;0.80;;;;;;;9.28;42.93;100842.71;1955089;73;21002;-63
2021/12/21 11:39:42;;;;;;;4.95;2.12;;;;;;;8.86;43.51;100854.95;1939500;74;21026;-62
2021/12/21 11:42:13;;;;;;;1.27;0.98;;;;;;;8.74;43.69;100855.30;1977345;72;21449;-66
2021/12/21 11:44:53;;;;;;;2.33;0.95;;;;;;;8.55;44.03;100863.33;1986117;72;21457;-65
2021/12/21 11:47:24;;;;;;;1.70;0.70;;;;;;;8.84;43.37;100857.23;1973943;72;21235;-69
2021/12/21 11:49:58;;;;;;;3.27;1.10;;;;;;;9.97;41.35;100851.38;1939796;73;21043;-71
2021/12/21 11:52:31;;;;;;;0.80;0.70;;;;;;;9.81;41.52;100854.13;1955599;73;21007;-70
2021/12/21 11:55:08;;;;;;;1.80;0.90;;;;;;;9.80;41.66;100849.33;1941051;74;21026;-63
2021/12/21 11:57:43;;;;;;;1.10;0.90;;;;;;;9.76;41.81;100856.08;1955524;73;21100;-64
2021/12/21 12:00:20;;;;;;;1.35;0.80;;;;;;;9.74;42.14;100859.18;1940442;73;21462;-66
2021/12/21 12:02:51;;;;;;;2.12;0.72;;;;;;;9.37;42.60;100867.84;1955515;73;21501;-64
2021/12/21 12:05:22;;;;;;;2.20;0.72;;;;;;;9.09;43.06;100865.20;1940979;74;21108;-65
2021/12/21 12:08:11;;;;;;;1.27;1.10;;;;;;;8.83;43.44;100864.22;1955457;73;21104;-64
2021/12/21 12:10:43;;;;;;;2.00;0.80;;;;;;;8.56;43.92;100872.91;1940985;73;21059;-62
2021/12/21 12:13:17;;;;;;;1.70;1.30;;;;;;;8.55;44.15;100869.43;1939588;73;21100;-65
2021/12/21 12:15:49;;;;;;;1.27;0.80;;;;;;;9.35;42.93;100864.84;1942096;74;21030;-62
2021/12/21 12:18:23;;;;;;;2.40;0.90;;;;;;;9.70;42.21;100865.46;1918133;75;21497;-63
2021/12/21 12:20:52;;;;;;;1.30;0.70;;;;;;;9.35;42.46;100868.35;1915807;74;21554;-64
2021/12/21 12:23:21;;;;;;;1.80;0.80;;;;;;;8.75;43.35;100874.11;1951778;73;21461;-64
2021/12/21 12:25:52;;;;;;;1.62;0.80;;;;;;;8.21;44.27;100872.97;1904742;75;21450;-65
2021/12/21 12:28:27;;;;;;;1.70;0.75;;;;;;;7.85;44.99;100878.72;1951660;73;21111;-62
2021/12/21 12:30:56;;;;;;;2.92;1.10;;;;;;;7.60;45.59;100875.84;1904702;75;21044;-58
2021/12/21 12:33:26;;;;;;;2.92;1.10;;;;;;;7.40;45.94;100877.66;1951822;73;21563;-59
2021/12/21 12:35:58;;;;;;;3.27;1.10;;;;;;;7.26;46.26;100883.20;1906007;75;21196;-58
2021/12/21 12:38:26;;;;;;;2.35;0.90;;;;;;;7.18;46.56;100889.93;1950324;73;21030;-58
2021/12/21 12:41:01;;;;;;;1.92;1.02;;;;;;;7.06;46.76;100895.44;1904672;75;21169;-58
2021/12/21 12:43:35;;;;;;;1.50;0.70;;;;;;;6.96;47.04;100900.02;1951530;73;21034;-58
2021/12/21 12:46:08;;;;;;;2.47;1.52;;;;;;;6.89;47.24;100894.49;1904745;75;21117;-58
2021/12/21 12:48:42;;;;;;;1.62;0.93;;;;;;;6.86;47.41;100905.02;1939561;73;21113;-58
2021/12/21 12:51:14;;;;;;;1.42;0.93;;;;;;;6.89;47.45;100903.20;1961178;73;21035;-58
2021/12/21 12:53:47;;;;;;;2.40;1.02;;;;;;;6.88;47.63;100906.73;1961469;73;21124;-58
2021/12/21 12:56:19;;;;;;;5.40;2.62;;;;;;;6.84;47.75;100912.93;1961574;73;21073;-59